createdAt,value
2023-05-22T00:02:18.975Z,95798.34
2023-05-22T00:04:47.796Z,95794.66
2023-05-22T00:07:16.528Z,95790.38
2023-05-22T00:09:44.887Z,95783.16
2023-05-22T00:12:13.194Z,95785.78
2023-05-22T00:14:42.890Z,95784.75
2023-05-22T00:17:15.176Z,95786.56
2023-05-22T00:19:43.862Z,95777.47
2023-05-22T00:22:12.238Z,95775.38
2023-05-22T00:24:40.582Z,95782.16
2023-05-22T00:27:08.899Z,95775.47
2023-05-22T00:29:37.263Z,95781.94
2023-05-22T00:32:08.361Z,95778.06
2023-05-22T00:34:36.743Z,95773.56
2023-05-22T00:37:05.272Z,95773.47
2023-05-22T00:39:33.624Z,95780.03
2023-05-22T00:42:01.913Z,95783.94
2023-05-22T00:44:30.955Z,95781.41
2023-05-22T00:46:59.588Z,95784.78
2023-05-22T00:49:29.826Z,95781.66
2023-05-22T00:51:58.126Z,95776.47
2023-05-22T00:54:26.441Z,95774.72
2023-05-22T00:56:54.780Z,95773.97
2023-05-22T00:59:23.116Z,95779.22
2023-05-22T01:01:51.854Z,95777.09
2023-05-22T01:04:20.293Z,95779.38
2023-05-22T01:06:51.490Z,95771.47
2023-05-22T01:09:19.900Z,95776.59
2023-05-22T01:11:52.673Z,95775.03
2023-05-22T01:14:25.712Z,95781.03
2023-05-22T01:16:59.821Z,95773.88
2023-05-22T01:19:50.675Z,95778.31
2023-05-22T01:22:26.115Z,95775.50
2023-05-22T01:25:00.812Z,95778.81
2023-05-22T01:27:44.702Z,95784.47
2023-05-22T01:30:21.208Z,95784.50
2023-05-22T01:32:51.075Z,95782.41
2023-05-22T01:35:20.637Z,95784.06
2023-05-22T01:37:50.246Z,95784.34
2023-05-22T01:40:18.779Z,95790.38
2023-05-22T01:42:47.345Z,95787.25
2023-05-22T01:45:15.979Z,95788.38
2023-05-22T01:47:46.510Z,95779.03
2023-05-22T01:50:17.459Z,95781.78
2023-05-22T01:53:02.775Z,95778.00
2023-05-22T01:55:36.053Z,95779.38
2023-05-22T01:58:12.320Z,95784.78
2023-05-22T02:00:41.607Z,95783.81
2023-05-22T02:03:12.742Z,95785.69
2023-05-22T02:05:42.600Z,95783.00
2023-05-22T02:08:11.014Z,95781.19
2023-05-22T02:10:43.309Z,95779.34
2023-05-22T02:13:12.033Z,95778.53
2023-05-22T02:15:40.492Z,95777.53
2023-05-22T02:18:13.059Z,95767.13
2023-05-22T02:20:44.233Z,95775.75
2023-05-22T02:23:12.827Z,95773.91
2023-05-22T02:25:41.516Z,95769.31
2023-05-22T02:28:09.802Z,95763.69
2023-05-22T02:30:38.337Z,95760.47
2023-05-22T02:33:06.919Z,95762.69
2023-05-22T02:35:35.849Z,95761.66
2023-05-22T02:38:06.678Z,95756.34
2023-05-22T02:40:35.390Z,95758.97
2023-05-22T02:43:03.896Z,95758.47
2023-05-22T02:45:32.621Z,95757.69
2023-05-22T02:48:02.193Z,95752.66
2023-05-22T02:50:31.167Z,95747.84
2023-05-22T02:52:59.767Z,95739.00
2023-05-22T02:55:29.679Z,95738.25
2023-05-22T02:57:58.058Z,95744.44
2023-05-22T03:00:26.752Z,95735.59
2023-05-22T03:02:56.691Z,95739.94
2023-05-22T03:05:25.093Z,95737.06
2023-05-22T03:07:53.493Z,95740.03
2023-05-22T03:10:21.887Z,95737.69
2023-05-22T03:12:51.990Z,95738.47
2023-05-22T03:15:20.581Z,95734.47
2023-05-22T03:17:50.350Z,95728.84
2023-05-22T03:20:18.946Z,95728.84
2023-05-22T03:22:47.312Z,95732.06
2023-05-22T03:25:16.554Z,95733.41
2023-05-22T03:27:45.101Z,95733.19
2023-05-22T03:30:16.752Z,95727.31
2023-05-22T03:32:55.037Z,95738.03
2023-05-22T03:35:25.334Z,95727.56
2023-05-22T03:37:53.830Z,95731.34
2023-05-22T03:40:22.278Z,95732.69
2023-05-22T03:42:50.883Z,95736.97
2023-05-22T03:45:21.361Z,95732.97
2023-05-22T03:47:50.159Z,95733.50
2023-05-22T03:50:18.509Z,95735.09
2023-05-22T03:52:47.176Z,95733.75
2023-05-22T03:55:16.379Z,95732.69
2023-05-22T03:57:45.174Z,95738.31
2023-05-22T04:00:17.105Z,95733.75
2023-05-22T04:02:48.088Z,95736.69
2023-05-22T04:05:16.656Z,95743.34
2023-05-22T04:07:45.238Z,95726.72
2023-05-22T04:10:13.801Z,95741.47
2023-05-22T04:12:42.583Z,95740.09
2023-05-22T04:15:11.289Z,95737.91
2023-05-22T04:17:40.547Z,95740.28
2023-05-22T04:20:11.332Z,95737.78
2023-05-22T04:22:41.358Z,95742.81
2023-05-22T04:25:11.314Z,95734.63
2023-05-22T04:27:40.256Z,95744.19
2023-05-22T04:30:10.612Z,95733.16
2023-05-22T04:32:41.010Z,95730.09
2023-05-22T04:35:12.374Z,95733.19
2023-05-22T04:37:42.391Z,95736.09
2023-05-22T04:40:11.550Z,95736.34
2023-05-22T04:42:40.596Z,95731.69
2023-05-22T04:45:10.021Z,95735.72
2023-05-22T04:47:41.749Z,95732.19
2023-05-22T04:50:14.405Z,95726.16
2023-05-22T04:52:43.470Z,95733.25
2023-05-22T04:55:13.041Z,95730.38
2023-05-22T04:57:41.353Z,95737.66
2023-05-22T05:00:10.950Z,95736.63
2023-05-22T05:02:40.303Z,95737.22
2023-05-22T05:05:09.601Z,95732.41
2023-05-22T05:07:43.932Z,95740.16
2023-05-22T05:10:12.450Z,95741.22
2023-05-22T05:12:40.749Z,95735.22
2023-05-22T05:15:10.008Z,95743.50
2023-05-22T05:17:38.485Z,95734.53
2023-05-22T05:20:08.734Z,95736.25
2023-05-22T05:22:37.529Z,95732.63
2023-05-22T05:25:10.935Z,95730.13
2023-05-22T05:27:40.727Z,95727.59
2023-05-22T05:30:10.923Z,95735.03
2023-05-22T05:32:59.516Z,95735.66
2023-05-22T05:35:36.489Z,95730.38
2023-05-22T05:38:09.921Z,95736.72
2023-05-22T05:40:42.270Z,95730.91
2023-05-22T05:43:14.124Z,95731.34
2023-05-22T05:45:43.785Z,95731.44
2023-05-22T05:48:13.059Z,95723.53
2023-05-22T05:50:44.992Z,95734.88
2023-05-22T05:53:13.283Z,95728.28
2023-05-22T05:55:47.621Z,95737.91
2023-05-22T05:58:16.274Z,95736.47
2023-05-22T06:00:56.432Z,95737.13
2023-05-22T06:03:26.280Z,95734.88
2023-05-22T06:06:03.707Z,95730.53
2023-05-22T06:08:58.374Z,95739.31
2023-05-22T06:11:33.845Z,95731.59
2023-05-22T06:14:04.134Z,95736.59
2023-05-22T06:16:33.141Z,95738.41
2023-05-22T06:19:01.751Z,95736.72
2023-05-22T06:21:30.078Z,95733.63
2023-05-22T06:23:58.936Z,95737.88
2023-05-22T06:26:27.811Z,95732.84
2023-05-22T06:28:57.629Z,95739.13
2023-05-22T06:31:26.592Z,95744.84
2023-05-22T06:33:57.900Z,95734.72
2023-05-22T06:36:27.145Z,95732.50
2023-05-22T06:38:56.533Z,95732.91
2023-05-22T06:41:45.172Z,95731.59
2023-05-22T06:44:17.211Z,95732.91
2023-05-22T06:46:45.511Z,95734.97
2023-05-22T06:49:20.937Z,95739.06
2023-05-22T06:51:53.182Z,95738.19
2023-05-22T06:54:22.690Z,95727.22
2023-05-22T06:56:57.048Z,95727.00
2023-05-22T06:59:29.710Z,95729.69
2023-05-22T07:02:07.224Z,95733.28
2023-05-22T07:05:00.230Z,95731.56
2023-05-22T07:07:45.134Z,95735.13
2023-05-22T07:10:13.806Z,95732.56
2023-05-22T07:12:42.249Z,95732.00
2023-05-22T07:15:14.735Z,95731.63
2023-05-22T07:17:49.492Z,95728.56
2023-05-22T07:20:19.600Z,95726.63
2023-05-22T07:23:06.709Z,95729.34
2023-05-22T07:25:37.653Z,95727.44
2023-05-22T07:28:09.095Z,95725.19
2023-05-22T07:30:46.095Z,95738.47
2023-05-22T07:33:14.615Z,95729.78
2023-05-22T07:35:45.704Z,95729.69
2023-05-22T07:38:14.430Z,95719.66
2023-05-22T07:40:50.598Z,95723.28
2023-05-22T07:43:19.477Z,95723.69
2023-05-22T07:45:49.747Z,95727.03
2023-05-22T07:48:21.480Z,95721.41
2023-05-22T07:50:50.108Z,95725.75
2023-05-22T07:53:18.416Z,95720.19
2023-05-22T07:55:50.956Z,95721.81
2023-05-22T07:58:20.130Z,95718.41
2023-05-22T08:00:52.483Z,95715.94
2023-05-22T08:03:23.836Z,95713.72
2023-05-22T08:05:52.788Z,95711.75
2023-05-22T08:08:21.167Z,95720.34
2023-05-22T08:11:03.054Z,95718.03
2023-05-22T08:13:32.454Z,95724.94
2023-05-22T08:16:02.521Z,95717.94
2023-05-22T08:18:30.859Z,95717.94
2023-05-22T08:21:00.318Z,95724.28
2023-05-22T08:23:28.713Z,95714.25
2023-05-22T08:25:57.198Z,95718.94
2023-05-22T08:28:25.512Z,95720.84
2023-05-22T08:30:54.508Z,95713.13
2023-05-22T08:33:24.463Z,95714.81
2023-05-22T08:35:52.803Z,95716.03
2023-05-22T08:38:21.084Z,95708.22
2023-05-22T08:40:49.931Z,95720.22
2023-05-22T08:43:21.630Z,95718.25
2023-05-22T08:45:50.680Z,95712.13
2023-05-22T08:48:19.004Z,95712.66
2023-05-22T08:50:48.885Z,95711.09
2023-05-22T08:53:18.029Z,95709.06
2023-05-22T08:55:46.696Z,95705.28
2023-05-22T08:58:16.072Z,95700.69
2023-05-22T09:00:44.508Z,95702.41
2023-05-22T09:03:15.316Z,95698.56
2023-05-22T09:05:45.430Z,95695.63
2023-05-22T09:08:20.485Z,95699.91
2023-05-22T09:10:49.906Z,95698.00
2023-05-22T09:13:28.132Z,95698.34
2023-05-22T09:15:59.771Z,95684.25
2023-05-22T09:18:30.882Z,95685.50
2023-05-22T09:21:00.079Z,95683.56
2023-05-22T09:23:30.718Z,95684.91
2023-05-22T09:25:59.678Z,95684.84
2023-05-22T09:28:29.039Z,95685.22
2023-05-22T09:30:57.407Z,95688.19
2023-05-22T09:33:25.973Z,95682.47
2023-05-22T09:35:54.543Z,95679.41
2023-05-22T09:38:23.510Z,95679.03
2023-05-22T09:40:55.839Z,95680.72
2023-05-22T09:43:25.422Z,95687.44
2023-05-22T09:45:58.099Z,95684.53
2023-05-22T09:48:26.836Z,95685.13
2023-05-22T09:50:56.083Z,95681.06
2023-05-22T09:53:27.441Z,95681.25
2023-05-22T09:55:58.100Z,95683.81
2023-05-22T09:58:28.266Z,95685.22
2023-05-22T10:00:57.741Z,95683.94
2023-05-22T10:03:27.182Z,95683.47
2023-05-22T10:05:56.337Z,95680.78
2023-05-22T10:08:26.999Z,95685.09
2023-05-22T10:10:55.318Z,95680.00
2023-05-22T10:13:25.178Z,95676.38
2023-05-22T10:15:53.486Z,95672.22
2023-05-22T10:18:22.187Z,95678.03
2023-05-22T10:20:50.476Z,95675.69
2023-05-22T10:23:19.335Z,95677.13
2023-05-22T10:25:47.741Z,95676.84
2023-05-22T10:28:18.147Z,95670.88
2023-05-22T10:30:51.302Z,95664.34
2023-05-22T10:33:26.423Z,95667.59
2023-05-22T10:35:56.652Z,95667.81
2023-05-22T10:38:47.150Z,95665.50
2023-05-22T10:41:15.437Z,95661.94
2023-05-22T10:43:43.986Z,95650.03
2023-05-22T10:46:14.666Z,95659.75
2023-05-22T10:48:45.559Z,95660.16
2023-05-22T10:51:14.028Z,95658.50
2023-05-22T10:53:45.392Z,95651.94
2023-05-22T10:56:14.465Z,95648.91
2023-05-22T10:58:45.702Z,95651.84
2023-05-22T11:01:16.642Z,95649.78
2023-05-22T11:03:58.362Z,95642.84
2023-05-22T11:06:39.366Z,95643.00
2023-05-22T11:09:21.871Z,95647.78
2023-05-22T11:11:50.576Z,95648.06
2023-05-22T11:14:21.308Z,95645.25
2023-05-22T11:16:51.087Z,95641.19
2023-05-22T11:19:23.891Z,95639.59
2023-05-22T11:21:52.526Z,95638.63
2023-05-22T11:24:20.876Z,95638.25
2023-05-22T11:27:02.359Z,95627.94
2023-05-22T11:29:30.808Z,95628.91
2023-05-22T11:32:00.826Z,95622.28
2023-05-22T11:34:29.222Z,95624.03
2023-05-22T11:37:00.831Z,95622.97
2023-05-22T11:39:29.422Z,95625.91
2023-05-22T11:41:57.955Z,95618.09
2023-05-22T11:44:28.542Z,95624.72
2023-05-22T11:46:56.910Z,95608.34
2023-05-22T11:49:26.729Z,95613.75
2023-05-22T11:51:55.062Z,95614.09
2023-05-22T11:54:24.396Z,95607.59
2023-05-22T11:56:52.689Z,95608.34
2023-05-22T11:59:22.697Z,95611.50
2023-05-22T12:01:51.028Z,95608.78
2023-05-22T12:04:19.429Z,95611.78
2023-05-22T12:06:49.907Z,95606.16
2023-05-22T12:09:18.348Z,95604.53
2023-05-22T12:11:47.648Z,95608.56
2023-05-22T12:14:16.006Z,95605.25
2023-05-22T12:16:44.737Z,95601.13
2023-05-22T12:19:13.522Z,95601.31
2023-05-22T12:21:42.370Z,95610.50
2023-05-22T12:24:12.170Z,95606.59
2023-05-22T12:26:40.562Z,95607.31
2023-05-22T12:29:08.874Z,95603.81
2023-05-22T12:31:38.580Z,95599.47
2023-05-22T12:34:08.624Z,95599.78
2023-05-22T12:36:37.176Z,95602.00
2023-05-22T12:39:09.288Z,95592.75
2023-05-22T12:41:39.037Z,95599.03
2023-05-22T12:44:07.430Z,95596.28
2023-05-22T12:46:35.929Z,95591.66
2023-05-22T12:49:04.524Z,95596.75
2023-05-22T12:51:33.535Z,95595.56
2023-05-22T12:54:02.135Z,95590.94
2023-05-22T12:56:30.471Z,95589.88
2023-05-22T12:59:00.184Z,95593.03
2023-05-22T13:01:28.541Z,95589.13
2023-05-22T13:03:56.866Z,95595.75
2023-05-22T13:06:25.241Z,95589.88
2023-05-22T13:08:53.739Z,95582.38
2023-05-22T13:11:23.529Z,95578.03
2023-05-22T13:13:51.913Z,95582.81
2023-05-22T13:16:22.822Z,95581.31
2023-05-22T13:18:51.390Z,95584.06
2023-05-22T13:21:19.780Z,95577.34
2023-05-22T13:23:48.073Z,95580.00
2023-05-22T13:26:16.402Z,95575.72
2023-05-22T13:28:45.146Z,95572.66
2023-05-22T13:31:13.540Z,95575.09
2023-05-22T13:33:43.340Z,95572.84
2023-05-22T13:36:11.724Z,95563.84
2023-05-22T13:38:40.007Z,95564.63
2023-05-22T13:41:08.585Z,95567.41
2023-05-22T13:43:36.970Z,95564.66
2023-05-22T13:46:05.341Z,95568.56
2023-05-22T13:48:33.666Z,95559.13
2023-05-22T13:51:03.549Z,95553.13
2023-05-22T13:53:31.958Z,95557.72
2023-05-22T13:56:02.128Z,95552.19
2023-05-22T13:58:30.508Z,95553.13
2023-05-22T14:00:59.194Z,95549.25
2023-05-22T14:03:27.614Z,95546.94
2023-05-22T14:05:56.031Z,95542.25
2023-05-22T14:08:26.391Z,95536.69
2023-05-22T14:10:54.727Z,95538.50
2023-05-22T14:13:23.077Z,95545.56
2023-05-22T14:15:51.442Z,95537.25
2023-05-22T14:18:19.912Z,95534.44
2023-05-22T14:20:48.265Z,95532.78
2023-05-22T14:23:17.167Z,95525.59
2023-05-22T14:25:46.878Z,95521.94
2023-05-22T14:28:15.215Z,95521.00
2023-05-22T14:30:44.102Z,95529.09
2023-05-22T14:33:12.595Z,95530.50
2023-05-22T14:35:41.509Z,95515.16
2023-05-22T14:38:10.083Z,95520.63
2023-05-22T14:40:38.500Z,95513.47
2023-05-22T14:43:08.255Z,95518.81
2023-05-22T14:45:36.558Z,95516.81
2023-05-22T14:48:05.465Z,95515.63
2023-05-22T14:50:33.862Z,95517.19
2023-05-22T14:53:02.198Z,95513.59
2023-05-22T14:55:31.601Z,95511.19
2023-05-22T14:57:59.916Z,95514.75
2023-05-22T15:00:29.781Z,95517.81
2023-05-22T15:02:58.188Z,95509.16
2023-05-22T15:05:26.995Z,95508.41
2023-05-22T15:07:58.468Z,95509.78
2023-05-22T15:10:26.841Z,95502.69
2023-05-22T15:12:55.544Z,95506.72
2023-05-22T15:15:23.974Z,95498.22
2023-05-22T15:17:53.764Z,95505.41
2023-05-22T15:20:22.108Z,95499.88
2023-05-22T15:22:50.383Z,95492.69
2023-05-22T15:25:18.710Z,95490.44
2023-05-22T15:27:46.992Z,95491.72
2023-05-22T15:30:17.134Z,95483.13
2023-05-22T15:32:45.700Z,95474.66
2023-05-22T15:35:15.487Z,95474.59
2023-05-22T15:37:43.805Z,95467.53
2023-05-22T15:40:16.463Z,95475.00
2023-05-22T15:42:44.889Z,95470.22
2023-05-22T15:45:13.818Z,95472.75
2023-05-22T15:47:42.620Z,95470.31
2023-05-22T15:50:11.555Z,95467.00
2023-05-22T15:52:41.255Z,95469.66
2023-05-22T15:55:09.978Z,95463.09
2023-05-22T15:57:38.790Z,95463.13
2023-05-22T16:00:08.668Z,95463.13
2023-05-22T16:02:37.048Z,95459.50
2023-05-22T16:05:05.870Z,95466.72
2023-05-22T16:07:34.508Z,95463.25
2023-05-22T16:10:04.646Z,95458.69
2023-05-22T16:12:33.243Z,95461.28
2023-05-22T16:15:02.800Z,95458.31
2023-05-22T16:17:32.301Z,95456.25
2023-05-22T16:20:00.632Z,95458.19
2023-05-22T16:22:40.046Z,95446.06
2023-05-22T16:25:17.875Z,95448.66
2023-05-22T16:27:46.257Z,95449.88
2023-05-22T16:30:16.965Z,95441.47
2023-05-22T16:32:46.180Z,95442.81
2023-05-22T16:35:14.594Z,95441.06
2023-05-22T16:37:42.914Z,95437.47
2023-05-22T16:40:11.985Z,95440.47
2023-05-22T16:42:41.738Z,95441.19
2023-05-22T16:45:10.594Z,95443.81
2023-05-22T16:47:38.934Z,95436.63
2023-05-22T16:50:09.038Z,95434.97
2023-05-22T16:52:38.468Z,95445.81
2023-05-22T16:55:07.711Z,95444.91
2023-05-22T16:57:36.029Z,95452.91
2023-05-22T17:00:07.321Z,95456.25
2023-05-22T17:02:35.965Z,95462.25
2023-05-22T17:05:04.593Z,95462.44
2023-05-22T17:07:33.597Z,95465.69
2023-05-22T17:10:02.401Z,95469.28
2023-05-22T17:12:30.936Z,95468.91
2023-05-22T17:14:59.350Z,95477.63
2023-05-22T17:17:29.064Z,95487.69
2023-05-22T17:19:58.638Z,95484.88
2023-05-22T17:22:26.982Z,95474.84
2023-05-22T17:24:55.490Z,95483.19
2023-05-22T17:27:34.860Z,95469.53
2023-05-22T17:30:04.739Z,95476.78
2023-05-22T17:32:34.638Z,95474.16
2023-05-22T17:35:05.000Z,95464.84
2023-05-22T17:37:33.383Z,95467.78
2023-05-22T17:40:01.661Z,95471.25
2023-05-22T17:42:30.052Z,95482.41
2023-05-22T17:44:58.449Z,95490.22
2023-05-22T17:47:27.199Z,95493.66
2023-05-22T17:49:56.980Z,95498.34
2023-05-22T17:52:25.284Z,95516.81
2023-05-22T17:54:55.936Z,95526.47
2023-05-22T17:57:24.326Z,95521.66
2023-05-22T17:59:52.609Z,95518.66
2023-05-22T18:02:20.988Z,95525.31
2023-05-22T18:04:49.682Z,95522.31
2023-05-22T18:07:20.037Z,95512.44
2023-05-22T18:09:48.413Z,95517.84
2023-05-22T18:12:31.203Z,95528.88
2023-05-22T18:15:00.312Z,95533.06
2023-05-22T18:17:29.183Z,95536.28
2023-05-22T18:19:57.552Z,95530.28
2023-05-22T18:22:27.310Z,95517.22
2023-05-22T18:24:55.589Z,95529.34
2023-05-22T18:27:23.897Z,95515.84
2023-05-22T18:29:52.525Z,95518.41
2023-05-22T18:32:20.824Z,95512.38
2023-05-22T18:34:49.747Z,95519.09
2023-05-22T18:37:19.032Z,95517.03
2023-05-22T18:39:48.762Z,95515.13
2023-05-22T18:42:17.624Z,95516.09
2023-05-22T18:44:48.726Z,95521.97
2023-05-22T18:47:17.536Z,95518.00
2023-05-22T18:49:45.965Z,95518.00
2023-05-22T18:52:14.376Z,95513.88
2023-05-22T18:54:42.714Z,95515.00
2023-05-22T18:57:13.911Z,95515.59
2023-05-22T18:59:43.672Z,95525.19
2023-05-22T19:02:12.011Z,95525.00
2023-05-22T19:04:40.342Z,95520.56
2023-05-22T19:07:09.437Z,95516.59
2023-05-22T19:09:38.275Z,95523.41
2023-05-22T19:12:07.522Z,95537.44
2023-05-22T19:14:37.246Z,95536.00
2023-05-22T19:17:05.936Z,95533.63
2023-05-22T19:19:35.771Z,95533.28
2023-05-22T19:22:04.277Z,95536.31
2023-05-22T19:24:33.072Z,95544.28
2023-05-22T19:27:01.484Z,95545.72
2023-05-22T19:29:29.846Z,95546.19
2023-05-22T19:31:59.614Z,95552.09
2023-05-22T19:34:28.429Z,95553.03
2023-05-22T19:36:57.988Z,95556.38
2023-05-22T19:39:27.384Z,95558.75
2023-05-22T19:41:55.753Z,95564.34
2023-05-22T19:44:24.115Z,95557.97
2023-05-22T19:46:52.766Z,95573.72
2023-05-22T19:49:22.474Z,95568.63
2023-05-22T19:51:52.542Z,95569.75
2023-05-22T19:54:22.524Z,95574.19
2023-05-22T19:56:51.161Z,95571.47
2023-05-22T19:59:20.001Z,95580.56
2023-05-22T20:01:49.964Z,95584.69
2023-05-22T20:04:19.425Z,95584.69
2023-05-22T20:06:49.249Z,95578.78
2023-05-22T20:09:17.618Z,95577.19
2023-05-22T20:11:46.461Z,95562.88
2023-05-22T20:14:15.221Z,95576.72
2023-05-22T20:16:44.127Z,95578.97
2023-05-22T20:19:14.329Z,95580.06
2023-05-22T20:21:43.543Z,95581.97
2023-05-22T20:24:19.217Z,95572.41
2023-05-22T20:26:47.518Z,95576.25
2023-05-22T20:29:15.818Z,95574.66
2023-05-22T20:31:44.197Z,95576.88
2023-05-22T20:34:12.723Z,95566.38
2023-05-22T20:36:42.628Z,95565.56
2023-05-22T20:39:12.011Z,95573.50
2023-05-22T20:41:41.674Z,95567.16
2023-05-22T20:44:10.461Z,95559.66
2023-05-22T20:46:39.044Z,95573.03
2023-05-22T20:49:07.327Z,95569.34
2023-05-22T20:51:35.617Z,95563.44
2023-05-22T20:54:03.943Z,95566.28
2023-05-22T20:56:32.435Z,95572.63
2023-05-22T20:59:02.409Z,95561.47
2023-05-22T21:01:31.202Z,95570.19
2023-05-22T21:03:59.567Z,95558.75
2023-05-22T21:06:27.838Z,95565.88
2023-05-22T21:08:59.815Z,95560.16
2023-05-22T21:11:28.062Z,95561.88
2023-05-22T21:13:56.586Z,95555.53
2023-05-22T21:16:26.462Z,95557.56
2023-05-22T21:18:54.833Z,95557.41
2023-05-22T21:21:23.119Z,95561.81
2023-05-22T21:23:52.543Z,95569.75
2023-05-22T21:26:23.087Z,95563.06
2023-05-22T21:28:51.756Z,95573.06
2023-05-22T21:31:20.113Z,95572.56
2023-05-22T21:33:49.842Z,95573.25
2023-05-22T21:36:18.113Z,95573.25
2023-05-22T21:38:46.464Z,95580.72
2023-05-22T21:41:16.158Z,95576.41
2023-05-22T21:43:45.523Z,95560.06
2023-05-22T21:46:13.861Z,95561.16
2023-05-22T21:48:42.239Z,95576.25
2023-05-22T21:51:12.017Z,95581.97
2023-05-22T21:53:40.387Z,95587.38
2023-05-22T21:56:09.585Z,95602.00
2023-05-22T21:58:37.820Z,95631.75
2023-05-22T22:01:06.576Z,95651.81
2023-05-22T22:03:35.250Z,95649.59
2023-05-22T22:06:03.589Z,95644.69
2023-05-22T22:08:33.801Z,95654.09
2023-05-22T22:11:02.049Z,95639.13
2023-05-22T22:13:30.356Z,95635.03
2023-05-22T22:15:59.526Z,95633.13
2023-05-22T22:18:27.906Z,95631.53
2023-05-22T22:20:56.254Z,95643.44
2023-05-22T22:23:24.891Z,95662.19
2023-05-22T22:25:54.939Z,95669.59
2023-05-22T22:28:23.331Z,95678.50
2023-05-22T22:30:55.026Z,95649.09
2023-05-22T22:33:23.716Z,95645.41
2023-05-22T22:35:52.553Z,95589.84
2023-05-22T22:38:21.190Z,95578.66
2023-05-22T22:40:49.497Z,95564.31
2023-05-22T22:43:19.971Z,95555.72
2023-05-22T22:45:48.408Z,95565.00
2023-05-22T22:48:17.015Z,95585.06
2023-05-22T22:50:46.899Z,95598.19
2023-05-22T22:53:15.218Z,95586.69
2023-05-22T22:55:44.128Z,95591.72
2023-05-22T22:58:12.577Z,95586.03
2023-05-22T23:00:42.571Z,95603.31
2023-05-22T23:03:11.461Z,95630.16
2023-05-22T23:05:40.144Z,95641.94
2023-05-22T23:08:08.825Z,95642.63
2023-05-22T23:10:37.192Z,95619.94
2023-05-22T23:13:05.511Z,95621.03
2023-05-22T23:15:34.923Z,95608.66
2023-05-22T23:18:05.461Z,95606.94
2023-05-22T23:20:33.810Z,95602.47
2023-05-22T23:23:02.118Z,95583.81
2023-05-22T23:25:30.476Z,95590.75
2023-05-22T23:27:58.850Z,95601.84
2023-05-22T23:30:27.406Z,95592.66
2023-05-22T23:32:55.822Z,95585.81
2023-05-22T23:35:25.619Z,95582.72
2023-05-22T23:37:53.922Z,95575.75
2023-05-22T23:40:22.233Z,95571.44
2023-05-22T23:42:50.994Z,95567.16
2023-05-22T23:45:19.310Z,95555.88
2023-05-22T23:47:47.661Z,95549.22
2023-05-22T23:50:16.125Z,95547.63
2023-05-22T23:52:47.364Z,95550.91
2023-05-22T23:55:15.727Z,95555.00
2023-05-22T23:57:44.308Z,95548.00
